createdAt,value
2018-05-04T00:00:20.381Z,14.97
2018-05-04T00:02:48.812Z,15.23
2018-05-04T00:05:16.752Z,15.97
2018-05-04T00:07:44.385Z,14.83
2018-05-04T00:10:12.792Z,15.23
2018-05-04T00:12:40.485Z,15.80
2018-05-04T00:15:08.124Z,14.40
2018-05-04T00:17:35.757Z,14.60
2018-05-04T00:20:03.601Z,14.90
2018-05-04T00:22:31.431Z,14.10
2018-05-04T00:24:59.073Z,13.80
2018-05-04T00:27:26.959Z,14.77
2018-05-04T00:29:54.613Z,14.93
2018-05-04T00:32:22.254Z,14.50
2018-05-04T00:34:50.121Z,14.67
2018-05-04T00:37:17.761Z,13.77
2018-05-04T00:39:46.224Z,14.87
2018-05-04T00:42:15.268Z,14.27
2018-05-04T00:44:42.912Z,14.17
2018-05-04T00:47:10.548Z,15.80
2018-05-04T00:49:38.245Z,15.50
2018-05-04T00:52:05.880Z,16.03
2018-05-04T00:54:34.285Z,15.47
2018-05-04T00:57:02.150Z,14.57
2018-05-04T00:59:29.784Z,17.33
2018-05-04T01:01:58.184Z,16.37
2018-05-04T01:04:25.868Z,16.27
2018-05-04T01:06:53.741Z,14.97
2018-05-04T01:09:21.389Z,16.17
2018-05-04T01:11:49.084Z,16.43
2018-05-04T01:14:16.725Z,16.83
2018-05-04T01:16:44.491Z,16.77
2018-05-04T01:19:12.334Z,18.23
2018-05-04T01:21:40.160Z,15.50
2018-05-04T01:24:07.991Z,15.93
2018-05-04T01:26:35.938Z,16.60
2018-05-04T01:29:03.573Z,16.73
2018-05-04T01:31:32.205Z,16.30
2018-05-04T01:34:00.068Z,16.70
2018-05-04T01:36:27.769Z,16.70
2018-05-04T01:38:56.213Z,17.00
2018-05-04T01:41:24.073Z,15.77
2018-05-04T01:43:51.716Z,16.40
2018-05-04T01:46:19.352Z,16.30
2018-05-04T01:48:48.044Z,17.20
2018-05-04T01:51:16.451Z,17.47
2018-05-04T01:53:44.232Z,17.03
2018-05-04T01:56:12.503Z,16.77
2018-05-04T01:58:40.149Z,17.77
2018-05-04T02:01:07.932Z,16.47
2018-05-04T02:03:35.656Z,16.83
2018-05-04T02:06:04.064Z,16.63
2018-05-04T02:08:31.838Z,16.50
2018-05-04T02:10:59.921Z,16.83
2018-05-04T02:13:27.771Z,17.47
2018-05-04T02:15:55.418Z,15.77
2018-05-04T02:18:23.300Z,16.00
2018-05-04T02:20:50.950Z,17.43
2018-05-04T02:23:18.670Z,17.83
2018-05-04T02:25:47.297Z,16.17
2018-05-04T02:28:14.928Z,15.73
2018-05-04T02:30:43.349Z,17.83
2018-05-04T02:33:11.222Z,17.57
2018-05-04T02:35:38.871Z,17.13
2018-05-04T02:38:06.509Z,16.63
2018-05-04T02:40:34.386Z,16.60
2018-05-04T02:43:02.169Z,17.73
2018-05-04T02:45:29.812Z,16.40
2018-05-04T02:47:57.885Z,17.23
2018-05-04T02:50:25.584Z,17.00
2018-05-04T02:52:53.436Z,17.93
2018-05-04T02:55:21.145Z,18.03
2018-05-04T02:57:49.785Z,19.30
2018-05-04T03:00:17.434Z,18.57
2018-05-04T03:02:45.511Z,16.97
2018-05-04T03:05:13.156Z,18.17
2018-05-04T03:07:40.941Z,17.97
2018-05-04T03:10:08.803Z,17.83
2018-05-04T03:12:36.459Z,20.27
2018-05-04T03:15:04.112Z,19.47
2018-05-04T03:17:31.797Z,20.77
2018-05-04T03:19:59.433Z,21.37
2018-05-04T03:22:27.068Z,23.27
2018-05-04T03:24:55.695Z,21.60
2018-05-04T03:27:23.341Z,22.63
2018-05-04T03:29:51.125Z,22.27
2018-05-04T03:32:18.869Z,23.20
2018-05-04T03:34:46.652Z,22.37
2018-05-04T03:37:14.296Z,23.10
2018-05-04T03:39:42.181Z,23.40
2018-05-04T03:42:11.579Z,21.17
2018-05-04T03:44:39.453Z,20.57
2018-05-04T03:47:07.301Z,20.70
2018-05-04T03:49:34.940Z,19.57
2018-05-04T03:52:02.661Z,22.70
2018-05-04T03:54:30.622Z,19.53
2018-05-04T03:57:22.808Z,20.93
2018-05-04T04:00:03.516Z,20.27
2018-05-04T04:02:42.954Z,17.63
2018-05-04T04:05:10.797Z,19.57
2018-05-04T04:07:38.432Z,18.60
2018-05-04T04:10:06.960Z,18.87
2018-05-04T04:12:34.801Z,19.27
2018-05-04T04:15:03.185Z,18.43
2018-05-04T04:17:30.826Z,18.33
2018-05-04T04:19:59.454Z,18.83
2018-05-04T04:22:27.218Z,18.87
2018-05-04T04:24:54.852Z,18.53
2018-05-04T04:27:22.549Z,18.43
2018-05-04T04:29:50.400Z,17.53
2018-05-04T04:32:18.274Z,18.77
2018-05-04T04:34:46.345Z,18.40
2018-05-04T04:37:13.988Z,18.10
2018-05-04T04:39:42.360Z,18.10
2018-05-04T04:42:10.437Z,17.07
2018-05-04T04:44:38.173Z,17.47
2018-05-04T04:47:05.848Z,18.17
2018-05-04T04:49:33.541Z,18.30
2018-05-04T04:52:01.223Z,17.73
2018-05-04T04:54:29.624Z,18.33
2018-05-04T04:56:57.497Z,17.93
2018-05-04T04:59:25.136Z,16.73
2018-05-04T05:01:52.788Z,19.37
2018-05-04T05:04:20.680Z,17.60
2018-05-04T05:06:48.316Z,17.93
2018-05-04T05:09:16.726Z,18.37
2018-05-04T05:11:44.715Z,19.60
2018-05-04T05:14:12.368Z,17.80
2018-05-04T05:16:40.005Z,17.67
2018-05-04T05:19:07.881Z,17.87
2018-05-04T05:21:35.661Z,18.27
2018-05-04T05:24:03.312Z,18.43
2018-05-04T05:26:31.009Z,18.07
2018-05-04T05:28:59.418Z,18.27
2018-05-04T05:31:27.835Z,15.83
2018-05-04T05:33:55.694Z,17.57
2018-05-04T05:36:23.950Z,17.50
2018-05-04T05:38:52.353Z,17.83
2018-05-04T05:41:20.232Z,17.23
2018-05-04T05:43:47.880Z,18.27
2018-05-04T05:46:15.525Z,19.17
2018-05-04T05:48:44.347Z,18.50
2018-05-04T05:51:11.988Z,19.00
2018-05-04T05:53:39.629Z,19.70
2018-05-04T05:56:07.344Z,20.00
2018-05-04T05:58:34.981Z,19.97
2018-05-04T06:01:02.673Z,18.27
2018-05-04T06:03:30.606Z,18.40
2018-05-04T06:05:58.317Z,18.87
2018-05-04T06:08:25.924Z,18.97
2018-05-04T06:10:54.125Z,20.23
2018-05-04T06:13:21.789Z,20.97
2018-05-04T06:15:49.652Z,20.27
2018-05-04T06:18:17.493Z,24.50
2018-05-04T06:20:45.133Z,21.00
2018-05-04T06:23:13.537Z,26.80
2018-05-04T06:25:41.422Z,24.77
2018-05-04T06:28:09.284Z,19.10
2018-05-04T06:30:36.928Z,18.90
2018-05-04T06:33:04.904Z,18.10
2018-05-04T06:35:32.540Z,18.30
2018-05-04T06:38:00.176Z,18.03
2018-05-04T06:40:28.008Z,18.77
2018-05-04T06:42:55.652Z,17.00
2018-05-04T06:45:23.293Z,17.80
2018-05-04T06:47:51.380Z,17.67
2018-05-04T06:50:19.161Z,24.63
2018-05-04T06:52:46.813Z,17.43
2018-05-04T06:55:14.801Z,17.97
2018-05-04T06:57:42.488Z,18.20
2018-05-04T07:00:10.327Z,17.73
2018-05-04T07:02:38.596Z,18.67
2018-05-04T07:05:06.472Z,22.90
2018-05-04T07:07:34.149Z,17.93
2018-05-04T07:10:02.921Z,22.67
2018-05-04T07:12:30.570Z,20.37
2018-05-04T07:14:58.342Z,21.67
2018-05-04T07:17:26.521Z,21.17
2018-05-04T07:19:54.184Z,19.30
2018-05-04T07:22:21.881Z,41.90
2018-05-04T07:24:50.356Z,22.03
2018-05-04T07:27:18.020Z,18.87
2018-05-04T07:29:45.844Z,18.57
2018-05-04T07:32:13.700Z,18.00
2018-05-04T07:34:41.336Z,18.20
2018-05-04T07:37:09.136Z,17.10
2018-05-04T07:39:37.208Z,19.73
2018-05-04T07:42:04.857Z,18.97
2018-05-04T07:44:32.493Z,17.83
2018-05-04T07:47:01.304Z,17.83
2018-05-04T07:49:29.089Z,18.10
2018-05-04T07:51:56.753Z,19.67
2018-05-04T07:54:24.478Z,18.50
2018-05-04T07:56:52.117Z,18.90
2018-05-04T07:59:20.524Z,17.63
2018-05-04T08:01:48.521Z,18.50
2018-05-04T08:04:16.383Z,18.13
2018-05-04T08:06:44.257Z,17.67
2018-05-04T08:09:13.884Z,17.90
2018-05-04T08:11:41.727Z,20.67
2018-05-04T08:14:09.373Z,17.73
2018-05-04T08:16:37.069Z,17.83
2018-05-04T08:19:04.706Z,15.93
2018-05-04T08:21:32.476Z,16.00
2018-05-04T08:24:00.313Z,16.20
2018-05-04T08:26:27.953Z,18.63
2018-05-04T08:28:56.368Z,21.70
2018-05-04T08:31:24.065Z,19.67
2018-05-04T08:33:51.910Z,19.57
2018-05-04T08:36:19.556Z,19.17
2018-05-04T08:38:47.646Z,18.10
2018-05-04T08:41:15.304Z,16.67
2018-05-04T08:43:42.948Z,16.93
2018-05-04T08:46:10.632Z,15.20
2018-05-04T08:48:38.495Z,15.57
2018-05-04T08:51:06.153Z,16.07
2018-05-04T08:53:34.413Z,16.17
2018-05-04T08:56:02.077Z,16.27
2018-05-04T08:58:29.770Z,16.20
2018-05-04T09:00:57.668Z,15.63
2018-05-04T09:03:25.530Z,13.70
2018-05-04T09:05:53.404Z,12.97
2018-05-04T09:08:21.456Z,12.67
2018-05-04T09:10:49.093Z,11.23
2018-05-04T09:13:16.725Z,8.77
2018-05-04T09:15:45.293Z,9.77
2018-05-04T09:18:12.977Z,9.30
2018-05-04T09:20:41.399Z,11.40
2018-05-04T09:23:09.092Z,11.47
2018-05-04T09:25:36.844Z,12.10
2018-05-04T09:28:04.484Z,12.37
2018-05-04T09:30:32.808Z,13.93
2018-05-04T09:33:00.542Z,13.47
2018-05-04T09:35:28.181Z,10.80
2018-05-04T09:37:56.256Z,10.33
2018-05-04T09:40:23.889Z,9.33
2018-05-04T09:42:52.297Z,11.17
2018-05-04T09:45:19.993Z,10.63
2018-05-04T09:47:47.851Z,7.60
2018-05-04T09:50:15.714Z,8.23
2018-05-04T09:52:43.883Z,9.00
2018-05-04T09:55:11.529Z,8.33
2018-05-04T09:57:39.173Z,8.73
2018-05-04T10:00:07.977Z,7.03
2018-05-04T10:02:35.763Z,8.00
2018-05-04T10:05:03.408Z,8.43
2018-05-04T10:07:31.296Z,9.03
2018-05-04T10:09:59.154Z,9.30
2018-05-04T10:12:26.796Z,8.30
2018-05-04T10:14:54.623Z,9.10
2018-05-04T10:17:23.168Z,9.13
2018-05-04T10:19:51.032Z,9.23
2018-05-04T10:22:18.733Z,9.17
2018-05-04T10:24:46.564Z,8.30
2018-05-04T10:27:14.224Z,7.60
2018-05-04T10:29:42.047Z,7.23
2018-05-04T10:32:10.674Z,5.60
2018-05-04T10:34:38.328Z,6.43
2018-05-04T10:37:06.029Z,5.93
2018-05-04T10:39:33.668Z,6.47
2018-05-04T10:42:01.302Z,6.67
2018-05-04T10:44:29.384Z,7.33
2018-05-04T10:46:57.262Z,6.50
2018-05-04T10:49:25.121Z,5.57
2018-05-04T10:51:52.808Z,6.60
2018-05-04T10:54:20.452Z,6.73
2018-05-04T10:56:48.105Z,6.53
2018-05-04T10:59:16.634Z,6.63
2018-05-04T11:01:45.269Z,7.07
2018-05-04T11:04:13.142Z,7.00
2018-05-04T11:06:41.084Z,6.70
2018-05-04T11:09:08.720Z,7.93
2018-05-04T11:11:36.366Z,7.03
2018-05-04T11:14:04.836Z,7.83
2018-05-04T11:16:33.249Z,8.33
2018-05-04T11:19:01.023Z,8.17
2018-05-04T11:21:28.978Z,9.00
2018-05-04T11:23:56.613Z,8.90
2018-05-04T11:26:25.238Z,8.67
2018-05-04T11:28:53.108Z,8.90
2018-05-04T11:31:20.745Z,9.33
2018-05-04T11:33:48.378Z,8.93
2018-05-04T11:36:16.403Z,8.23
2018-05-04T11:38:44.049Z,8.97
2018-05-04T11:41:11.832Z,9.60
2018-05-04T11:43:39.695Z,13.50
2018-05-04T11:46:07.570Z,9.40
2018-05-04T11:48:35.233Z,9.67
2018-05-04T11:51:02.925Z,9.13
2018-05-04T11:53:31.144Z,9.17
2018-05-04T11:55:58.784Z,10.73
2018-05-04T11:58:27.377Z,8.87
2018-05-04T12:00:55.016Z,9.20
2018-05-04T12:03:23.421Z,9.47
2018-05-04T12:05:51.106Z,8.43
2018-05-04T12:08:18.771Z,8.87
2018-05-04T12:10:46.419Z,8.47
2018-05-04T12:13:14.512Z,7.70
2018-05-04T12:15:42.162Z,7.23
2018-05-04T12:18:10.040Z,8.43
2018-05-04T12:20:37.728Z,8.33
2018-05-04T12:23:05.369Z,8.77
2018-05-04T12:25:33.012Z,7.70
2018-05-04T12:28:01.093Z,8.50
2018-05-04T12:30:28.960Z,8.90
2018-05-04T12:32:56.829Z,8.10
2018-05-04T12:35:24.976Z,7.67
2018-05-04T12:37:52.763Z,7.63
2018-05-04T12:40:20.627Z,7.20
2018-05-04T12:42:48.344Z,6.93
2018-05-04T12:45:16.745Z,6.80
2018-05-04T12:47:45.073Z,7.03
2018-05-04T12:50:12.761Z,5.87
2018-05-04T12:52:41.161Z,7.00
2018-05-04T12:55:09.025Z,6.27
2018-05-04T12:57:37.028Z,6.23
2018-05-04T13:00:04.725Z,6.70
2018-05-04T13:02:32.365Z,6.70
2018-05-04T13:05:00.110Z,6.40
2018-05-04T13:07:27.748Z,6.23
2018-05-04T13:09:55.387Z,6.40
2018-05-04T13:12:23.836Z,6.77
2018-05-04T13:14:52.394Z,6.30
2018-05-04T13:17:20.261Z,6.40
2018-05-04T13:19:47.989Z,6.97
2018-05-04T13:22:15.625Z,6.97
2018-05-04T13:24:44.028Z,6.57
2018-05-04T13:27:11.740Z,7.13
2018-05-04T13:29:39.382Z,9.07
2018-05-04T13:32:07.021Z,6.57
2018-05-04T13:34:34.714Z,6.90
2018-05-04T13:37:02.592Z,6.33
2018-05-04T13:39:30.241Z,6.37
2018-05-04T13:41:58.289Z,7.07
2018-05-04T13:44:26.090Z,6.67
2018-05-04T13:46:54.521Z,6.83
2018-05-04T13:49:22.201Z,6.50
2018-05-04T13:51:49.889Z,6.73
2018-05-04T13:54:17.549Z,7.57
2018-05-04T13:56:45.401Z,6.50
2018-05-04T13:59:13.275Z,7.33
2018-05-04T14:01:40.936Z,6.20
2018-05-04T14:04:08.803Z,6.40
2018-05-04T14:06:36.605Z,6.53
2018-05-04T14:09:05.082Z,6.83
2018-05-04T14:11:33.541Z,6.57
2018-05-04T14:14:01.177Z,5.83
2018-05-04T14:16:28.951Z,6.40
2018-05-04T14:18:58.154Z,6.50
2018-05-04T14:21:25.855Z,6.33
2018-05-04T14:23:54.491Z,6.47
2018-05-04T14:26:22.365Z,6.13
2018-05-04T14:28:50.034Z,6.70
2018-05-04T14:31:17.668Z,9.07
2018-05-04T14:33:45.348Z,7.70
2018-05-04T14:36:12.985Z,7.50
2018-05-04T14:38:40.625Z,10.87
2018-05-04T14:41:09.233Z,6.90
2018-05-04T14:43:36.867Z,6.47
2018-05-04T14:46:05.288Z,6.40
2018-05-04T14:48:33.144Z,6.97
2018-05-04T14:51:01.025Z,7.00
2018-05-04T14:53:28.665Z,6.50
2018-05-04T14:55:56.962Z,6.10
2018-05-04T14:58:24.770Z,6.83
2018-05-04T15:00:53.413Z,15.63
2018-05-04T15:03:21.589Z,6.23
2018-05-04T15:05:49.245Z,7.47
2018-05-04T15:08:16.882Z,6.57
2018-05-04T15:10:44.628Z,10.83
2018-05-04T15:13:12.274Z,6.43
2018-05-04T15:15:39.913Z,7.47
2018-05-04T15:18:07.629Z,7.70
2018-05-04T15:20:35.308Z,7.13
2018-05-04T15:23:02.943Z,6.63
2018-05-04T15:25:30.629Z,9.60
2018-05-04T15:27:58.447Z,10.03
2018-05-04T15:30:26.864Z,7.50
2018-05-04T15:32:54.577Z,8.17
2018-05-04T15:35:22.212Z,6.97
2018-05-04T15:37:49.849Z,7.03
2018-05-04T15:40:17.741Z,6.73
2018-05-04T15:42:45.393Z,6.70
2018-05-04T15:45:13.158Z,8.67
2018-05-04T15:47:40.860Z,10.63
2018-05-04T15:50:14.236Z,7.90
2018-05-04T15:52:43.440Z,8.30
2018-05-04T15:55:11.100Z,10.47
2018-05-04T15:57:38.748Z,12.33
2018-05-04T16:00:06.808Z,10.67
2018-05-04T16:02:34.475Z,15.13
2018-05-04T16:05:02.342Z,8.23
2018-05-04T16:07:30.053Z,8.03
2018-05-04T16:09:58.686Z,8.63
2018-05-04T16:12:26.940Z,7.17
2018-05-04T16:14:55.038Z,7.73
2018-05-04T16:17:22.902Z,7.40
2018-05-04T16:19:50.545Z,7.70
2018-05-04T16:22:18.337Z,7.83
2018-05-04T16:24:46.054Z,9.03
2018-05-04T16:27:13.752Z,8.80
2018-05-04T16:29:41.444Z,9.73
2018-05-04T16:32:09.079Z,9.73
2018-05-04T16:34:36.722Z,8.73
2018-05-04T16:37:04.637Z,8.07
2018-05-04T16:39:33.049Z,8.70
2018-05-04T16:42:00.689Z,8.27
2018-05-04T16:44:29.244Z,8.13
2018-05-04T16:47:02.537Z,8.43
2018-05-04T16:49:30.185Z,8.50
2018-05-04T16:51:58.124Z,7.37
2018-05-04T16:54:25.761Z,8.03
2018-05-04T16:56:54.189Z,8.27
2018-05-04T16:59:21.913Z,8.97
2018-05-04T17:01:50.330Z,8.93
2018-05-04T17:04:18.066Z,8.50
2018-05-04T17:06:45.837Z,8.90
2018-05-04T17:09:13.665Z,8.63
2018-05-04T17:11:41.276Z,9.23
2018-05-04T17:14:08.988Z,12.00
2018-05-04T17:16:36.624Z,10.27
2018-05-04T17:19:04.277Z,10.73
2018-05-04T17:21:31.973Z,9.27
2018-05-04T17:23:59.662Z,7.97
2018-05-04T17:26:27.326Z,8.53
2018-05-04T17:28:55.118Z,8.67
2018-05-04T17:31:22.753Z,8.77
2018-05-04T17:33:50.548Z,8.20
2018-05-04T17:36:18.488Z,8.37
2018-05-04T17:38:46.125Z,8.50
2018-05-04T17:41:14.762Z,8.20
2018-05-04T17:43:42.705Z,7.97
2018-05-04T17:46:10.596Z,8.20
2018-05-04T17:48:38.285Z,8.67
2018-05-04T17:51:05.984Z,9.57
2018-05-04T17:53:33.625Z,10.57
2018-05-04T17:56:02.157Z,11.43
2018-05-04T17:58:29.870Z,12.73
2018-05-04T18:00:58.289Z,10.33
2018-05-04T18:03:25.932Z,10.77
2018-05-04T18:05:54.244Z,9.97
2018-05-04T18:08:21.898Z,14.90
2018-05-04T18:10:49.577Z,19.23
2018-05-04T18:13:17.279Z,12.97
2018-05-04T18:15:45.684Z,11.07
2018-05-04T18:18:13.324Z,11.87
2018-05-04T18:20:42.041Z,11.60
2018-05-04T18:23:09.763Z,12.17
2018-05-04T18:25:38.754Z,12.00
2018-05-04T18:28:06.448Z,12.13
2018-05-04T18:30:34.096Z,13.07
2018-05-04T18:33:02.518Z,12.23
2018-05-04T18:35:30.469Z,12.93
2018-05-04T18:37:58.294Z,13.13
2018-05-04T18:40:25.952Z,14.93
2018-05-04T18:42:54.425Z,13.83
2018-05-04T18:45:22.069Z,13.67
2018-05-04T18:47:49.717Z,14.13
2018-05-04T18:50:17.553Z,12.20
2018-05-04T18:52:46.611Z,12.77
2018-05-04T18:55:14.377Z,12.03
2018-05-04T18:57:42.073Z,12.47
2018-05-04T19:00:10.677Z,12.53
2018-05-04T19:02:44.765Z,12.50
2018-05-04T19:05:12.450Z,12.93
2018-05-04T19:07:40.090Z,11.67
2018-05-04T19:10:07.941Z,11.60
2018-05-04T19:12:35.742Z,11.43
2018-05-04T19:15:04.352Z,11.47
2018-05-04T19:17:32.284Z,11.50
2018-05-04T19:19:59.925Z,11.63
2018-05-04T19:22:27.706Z,10.80
2018-05-04T19:24:55.457Z,11.67
2018-05-04T19:27:23.120Z,10.87
2018-05-04T19:29:50.765Z,10.63
2018-05-04T19:32:18.514Z,10.63
2018-05-04T19:34:46.206Z,10.60
2018-05-04T19:37:13.862Z,9.80
2018-05-04T19:39:41.661Z,10.37
2018-05-04T19:42:10.074Z,8.83
2018-05-04T19:44:37.744Z,9.90
2018-05-04T19:47:06.394Z,9.00
2018-05-04T19:49:34.812Z,8.30
2018-05-04T19:52:02.457Z,9.40
2018-05-04T19:54:31.069Z,8.80
2018-05-04T19:56:58.737Z,8.70
2018-05-04T19:59:27.142Z,11.83
2018-05-04T20:01:55.157Z,9.20
2018-05-04T20:04:22.857Z,9.53
2018-05-04T20:06:50.513Z,9.40
2018-05-04T20:09:18.266Z,14.43
2018-05-04T20:11:45.927Z,19.30
2018-05-04T20:14:14.399Z,15.40
2018-05-04T20:16:42.108Z,10.57
2018-05-04T20:19:09.804Z,11.50
2018-05-04T20:21:37.461Z,10.87
2018-05-04T20:24:05.149Z,9.73
2018-05-04T20:26:32.804Z,9.70
2018-05-04T20:29:00.571Z,9.57
2018-05-04T20:31:28.536Z,9.37
2018-05-04T20:33:56.242Z,9.77
2018-05-04T20:36:24.655Z,9.37
2018-05-04T20:38:52.360Z,9.50
2018-05-04T20:41:20.044Z,9.27
2018-05-04T20:43:48.449Z,9.37
2018-05-04T20:46:16.529Z,9.63
2018-05-04T20:48:44.207Z,9.70
2018-05-04T20:51:11.905Z,10.30
2018-05-04T20:53:40.447Z,9.50
2018-05-04T20:56:08.157Z,10.00
2018-05-04T20:58:36.569Z,9.40
2018-05-04T21:01:04.360Z,10.53
2018-05-04T21:03:31.997Z,9.93
2018-05-04T21:05:59.684Z,9.63
2018-05-04T21:08:27.380Z,10.03
2018-05-04T21:10:55.013Z,9.90
2018-05-04T21:13:22.721Z,10.10
2018-05-04T21:15:51.244Z,9.23
2018-05-04T21:18:18.929Z,9.57
2018-05-04T21:20:46.577Z,10.00
2018-05-04T21:23:14.340Z,9.77
2018-05-04T21:25:41.993Z,10.13
2018-05-04T21:28:09.628Z,9.30
2018-05-04T21:30:37.413Z,9.00
2018-05-04T21:33:05.067Z,9.27
2018-05-04T21:35:32.717Z,10.07
2018-05-04T21:38:00.496Z,8.73
2018-05-04T21:40:28.140Z,9.80
2018-05-04T21:42:55.874Z,9.70
2018-05-04T21:45:23.713Z,9.17
2018-05-04T21:47:52.193Z,9.63
2018-05-04T21:50:20.660Z,8.77
2018-05-04T21:52:48.356Z,9.43
2018-05-04T21:55:16.785Z,8.67
2018-05-04T21:57:44.478Z,8.73
2018-05-04T22:00:12.950Z,8.87
2018-05-04T22:02:40.643Z,8.93
2018-05-04T22:05:08.294Z,8.93
2018-05-04T22:07:37.054Z,9.13
2018-05-04T22:10:04.704Z,8.10
2018-05-04T22:12:32.393Z,8.70
2018-05-04T22:15:01.386Z,9.10
2018-05-04T22:17:29.825Z,9.03
2018-05-04T22:19:57.521Z,9.30
2018-05-04T22:22:26.042Z,9.63
2018-05-04T22:24:53.692Z,9.20
2018-05-04T22:27:22.090Z,9.83
2018-05-04T22:29:49.776Z,10.33
2018-05-04T22:32:17.465Z,9.40
2018-05-04T22:34:45.110Z,8.83
2018-05-04T22:37:12.857Z,9.90
2018-05-04T22:39:40.562Z,9.40
2018-05-04T22:42:09.041Z,9.63
2018-05-04T22:44:37.496Z,9.83
2018-05-04T22:47:05.143Z,9.37
2018-05-04T22:49:32.782Z,10.50
2018-05-04T22:52:00.859Z,10.67
2018-05-04T22:54:28.511Z,9.77
2018-05-04T22:56:56.148Z,8.80
2018-05-04T22:59:24.928Z,9.80
2018-05-04T23:01:53.332Z,9.53
2018-05-04T23:04:21.723Z,9.17
2018-05-04T23:06:49.454Z,10.40
2018-05-04T23:09:17.865Z,9.07
2018-05-04T23:11:45.554Z,9.30
2018-05-04T23:14:13.313Z,9.90
2018-05-04T23:16:40.961Z,8.87
2018-05-04T23:19:08.600Z,7.70
2018-05-04T23:21:36.437Z,7.83
2018-05-04T23:24:04.093Z,8.20
2018-05-04T23:26:31.730Z,8.43
2018-05-04T23:28:59.786Z,7.97
2018-05-04T23:31:27.437Z,7.60
2018-05-04T23:33:55.129Z,7.37
2018-05-04T23:36:22.970Z,7.47
2018-05-04T23:38:50.640Z,7.13
2018-05-04T23:41:18.276Z,7.57
2018-05-04T23:43:46.942Z,7.47
2018-05-04T23:46:14.604Z,7.57
2018-05-04T23:48:43.077Z,7.07
2018-05-04T23:51:11.806Z,8.10
2018-05-04T23:53:39.494Z,8.23
2018-05-04T23:56:07.144Z,8.90
2018-05-04T23:58:35.013Z,8.90
